Time,TemperatureF,DewpointF,PressureIn,WindDirection,WindDirectionDegrees,WindSpeedMPH,WindSpeedGustMPH,Humidity,HourlyPrecipIn,Conditions,Clouds,dailyrainin,SoftwareType,DateUTC
2013-03-18 00:00:00,25.5,16.8,30.60,ENE,72,4.0,9.0,69,0.00,,---,0.00,VWS V13.01,2013-03-18 04:00:00,
2013-03-18 00:30:00,25.4,17.0,30.43,SE,126,0.0,11.0,70,0.00,,---,0.00,VWS V13.01,2013-03-18 04:30:00,
2013-03-18 01:00:00,25.0,16.9,30.48,ESE,114,0.0,8.0,71,0.00,,---,0.00,VWS V13.01,2013-03-18 05:00:00,
2013-03-18 01:30:00,24.8,17.1,30.39,SE,127,1.0,11.0,72,0.00,,---,0.00,VWS V13.01,2013-03-18 05:30:00,
2013-03-18 02:00:00,24.8,17.1,30.39,SE,125,0.0,8.0,72,0.00,,---,0.00,VWS V13.01,2013-03-18 06:00:00,
2013-03-18 02:30:00,24.5,17.1,30.40,ESE,110,3.0,9.0,73,0.00,,---,0.00,VWS V13.01,2013-03-18 06:30:00,
2013-03-18 03:00:00,24.2,16.8,30.42,East,101,0.0,10.0,73,0.00,,---,0.00,VWS V13.01,2013-03-18 07:00:00,
2013-03-18 03:30:00,23.8,16.4,30.52,East,100,3.0,9.0,73,0.00,,---,0.00,VWS V13.01,2013-03-18 07:30:00,
2013-03-18 04:00:00,23.3,16.2,30.51,East,96,3.0,10.0,74,0.00,,---,0.00,VWS V13.01,2013-03-18 08:00:00,
2013-03-18 04:30:00,23.1,16.4,30.48,SE,128,0.0,11.0,75,0.00,,---,0.00,VWS V13.01,2013-03-18 08:30:00,
2013-03-18 05:00:00,22.9,16.2,30.49,NE,56,0.0,9.0,75,0.00,,---,0.00,VWS V13.01,2013-03-18 09:00:00,
2013-03-18 05:30:00,22.6,16.2,30.47,ENE,61,0.0,9.0,76,0.00,,---,0.00,VWS V13.01,2013-03-18 09:30:00,
2013-03-18 06:00:00,22.5,16.4,30.43,East,101,0.0,8.0,77,0.00,,---,0.00,VWS V13.01,2013-03-18 10:00:00,
2013-03-18 06:30:00,22.5,16.7,30.41,ENE,62,0.0,10.0,78,0.00,,---,0.00,VWS V13.01,2013-03-18 10:30:00,
2013-03-18 07:00:00,22.7,16.9,30.55,ENE,72,0.0,11.0,78,0.00,,---,0.00,VWS V13.01,2013-03-18 11:00:00,
2013-03-18 07:30:00,22.9,17.4,30.62,East,88,0.0,11.0,79,0.00,,---,0.00,VWS V13.01,2013-03-18 11:30:00,
2013-03-18 08:00:00,23.1,17.6,30.60,East,80,0.0,11.0,79,0.00,,---,0.00,VWS V13.01,2013-03-18 12:00:00,
2013-03-18 08:30:00,23.6,18.1,30.61,SE,125,0.0,10.0,79,0.00,,---,0.00,VWS V13.01,2013-03-18 12:30:00,
2013-03-18 09:00:00,25.2,19.6,30.53,SE,131,0.0,11.0,79,0.00,,---,0.00,VWS V13.01,2013-03-18 13:00:00,
2013-03-18 09:30:00,26.4,20.2,30.58,ENE,68,5.0,13.0,77,0.00,,---,0.00,VWS V13.01,2013-03-18 13:30:00,
2013-03-18 10:00:00,27.2,21.0,30.58,SE,138,0.0,12.0,77,0.00,,---,0.00,VWS V13.01,2013-03-18 14:00:00,
2013-03-18 10:30:00,28.1,22.4,30.48,ENE,59,9.0,11.0,79,0.00,,---,0.00,VWS V13.01,2013-03-18 14:30:00,
2013-03-18 11:00:00,28.9,23.5,30.50,ENE,62,0.0,13.0,80,0.00,,---,0.00,VWS V13.01,2013-03-18 15:00:00,
2013-03-18 11:30:00,29.2,23.8,30.45,NE,52,4.0,13.0,80,0.00,,---,0.00,VWS V13.01,2013-03-18 15:30:00,
2013-03-18 12:00:00,29.8,24.4,30.45,East,88,0.0,17.0,80,0.00,,---,0.00,VWS V13.01,2013-03-18 16:00:00,
2013-03-18 12:30:00,31.0,25.9,30.48,SE,132,0.0,11.0,81,0.00,,---,0.00,VWS V13.01,2013-03-18 16:30:00,
2013-03-18 13:00:00,31.6,27.0,30.45,ENE,63,6.0,10.0,83,0.00,,---,0.00,VWS V13.01,2013-03-18 17:00:00,
2013-03-18 13:30:00,32.3,28.0,30.42,ENE,63,2.0,13.0,84,0.00,,---,0.00,VWS V13.01,2013-03-18 17:30:00,
2013-03-18 14:00:00,33.0,29.3,30.40,ESE,111,0.0,9.0,86,0.00,,---,0.00,VWS V13.01,2013-03-18 18:00:00,
2013-03-18 14:30:00,33.0,29.8,30.39,ESE,122,0.0,7.0,88,0.00,,---,0.00,VWS V13.01,2013-03-18 18:30:00,
2013-03-18 15:00:00,32.9,29.7,30.30,ESE,123,0.0,7.0,88,0.00,,---,0.00,VWS V13.01,2013-03-18 19:00:00,
2013-03-18 15:30:00,33.1,30.8,30.31,ESE,120,0.0,0.0,91,0.01,,---,0.01,VWS V13.01,2013-03-18 19:30:00,
2013-03-18 16:00:00,33.7,31.6,30.32,ESE,110,0.0,1.0,92,0.02,,---,0.02,VWS V13.01,2013-03-18 20:00:00,
2013-03-18 16:30:00,34.4,32.3,30.36,SE,128,0.0,0.0,92,0.04,,---,0.04,VWS V13.01,2013-03-18 20:30:00,
2013-03-18 17:00:00,35.2,32.8,30.28,ESE,111,0.0,0.0,91,0.04,,---,0.05,VWS V13.01,2013-03-18 21:00:00,
2013-03-18 17:30:00,34.7,32.3,30.27,ESE,119,0.0,0.0,91,0.03,,---,0.05,VWS V13.01,2013-03-18 21:30:00,
2013-03-18 18:00:00,34.5,32.4,30.28,SE,134,0.0,0.0,92,0.01,,---,0.05,VWS V13.01,2013-03-18 22:00:00,
2013-03-18 18:30:00,34.6,32.8,30.26,SE,134,0.0,0.0,93,0.01,,---,0.06,VWS V13.01,2013-03-18 22:30:00,
2013-03-18 19:00:00,34.5,32.7,30.20,SE,134,0.0,0.0,93,0.01,,---,0.06,VWS V13.01,2013-03-18 23:00:00,
2013-03-18 19:30:00,34.1,32.6,30.24,SSE,154,0.0,0.0,94,0.01,,---,0.06,VWS V13.01,2013-03-18 23:30:00,
2013-03-18 20:00:00,33.7,32.4,30.23,SSE,154,0.0,0.0,95,0.01,,---,0.07,VWS V13.01,2013-03-19 00:00:00,
2013-03-18 20:30:00,33.3,32.3,30.23,West,265,0.0,0.0,96,0.01,,---,0.07,VWS V13.01,2013-03-19 00:30:00,
2013-03-18 21:00:00,33.2,32.2,30.25,WSW,251,0.0,0.0,96,0.01,,---,0.07,VWS V13.01,2013-03-19 01:00:00,
2013-03-18 21:30:00,33.3,32.5,30.23,SSW,203,0.0,0.0,97,0.00,,---,0.07,VWS V13.01,2013-03-19 01:30:00,
2013-03-18 22:00:00,33.4,32.4,30.25,WSW,242,0.0,1.0,96,0.00,,---,0.07,VWS V13.01,2013-03-19 02:00:00,
2013-03-18 22:30:00,33.6,32.3,30.25,West,272,0.0,1.0,95,0.00,,---,0.07,VWS V13.01,2013-03-19 02:30:00,
2013-03-18 23:00:00,33.7,32.4,30.25,WSW,250,0.0,1.0,95,0.00,,---,0.07,VWS V13.01,2013-03-19 03:00:00,
2013-03-18 23:30:00,33.5,32.5,30.25,NW,315,0.0,7.0,96,0.00,,---,0.07,VWS V13.01,2013-03-19 03:30:00,